• Join FlightAware (Why Join?)
  • Login
  • US Flag 
05:29PM EST


 

Airport Tracker/Info


-or-


 

Live Flight TrackerFlight Track Log ✈ SWA407 ✈ 19-Apr-2013 ✈ KSFO - KSAN

Flight Track Log - Related Links

Times and Time Zones

All times are in EDT time to prevent confusion due to time zone crossing. See the SWA407 flight status page for this flight to view local times or setup timezone preferences in your user account.

Time Position Orientation Groundspeed Altitude Reporting Facility
EDT Latitude Longitude Course Direction KTS MPH feet Rate Location/Type
11:50PM 37.7000 -122.4000 332° Northwest 228 262 5,100  Level Northern Cal TRACON
11:53PM 37.5578 -122.4622 199° South 275 316 12,200 3,180 Climbing Oakland Center
11:54PM 37.4583 -122.4806 188° South 357 411 15,100 3,000 Climbing Oakland Center
11:55PM 37.2089 -122.5308 185° South  Level FlightAware Approximate
11:55PM 37.3522 -122.4994 188° South 381 438 18,400  Level Oakland Center
11:56PM 37.2400 -122.5197 188° South 403 464 21,500 3,000 Climbing Oakland Center
11:57PM 37.1247 -122.5408 188° South 415 478 24,500 2,580 Climbing Oakland Center
11:58PM 37.0042 -122.5622 188° South 434 499 26,800 2,160 Climbing Oakland Center
11:59PM 36.8944 -122.4711 146° Southeast 466 536 28,900 2,100 Climbing Oakland Center
12:00AM 36.7886 -122.3650 141° Southeast 486 559 31,100 2,160 Climbing Oakland Center
12:01AM 36.6831 -122.2581 141° Southeast 491 565 33,400 2,340 Climbing Oakland Center
12:02AM 36.5567 -122.1344 142° Southeast 485 558 35,900 2,100 Climbing Oakland Center
12:03AM 36.4525 -122.0319 142° Southeast 478 550 37,700 1,440 Climbing Oakland Center
12:04AM 36.3489 -121.9306 142° Southeast 475 547 38,900 600 Climbing Oakland Center
12:05AM 36.2492 -121.8225 139° Southeast 477 549 39,000  Climbing Oakland Center
12:06AM 36.1786 -121.7044 126° Southeast 483 556 39,000  Level Oakland Center
12:07AM 36.0761 -121.5483 129° Southeast 486 559 39,000  Level Oakland Center
12:08AM 35.9900 -121.4211 130° Southeast 484 557 39,000  Level Oakland Center
12:09AM 35.9050 -121.2925 129° Southeast 484 557 39,000  Level Oakland Center
12:10AM 35.8203 -121.1636 129° Southeast 484 557 39,000  Level Oakland Center
12:11AM 35.7367 -121.0358 129° Southeast 481 554 39,000  Level Oakland Center
12:12AM 35.6508 -120.9083 130° Southeast 483 556 39,000  Level Oakland Center
12:13AM 35.5661 -120.7822 130° Southeast 481 554 39,000  Level Oakland Center
12:14AM 35.4811 -120.6550 129° Southeast 484 557 39,000 -540 Level Oakland Center
12:15AM 35.3969 -120.5308 130° Southeast 482 555 38,000 -1,020 Descending Oakland Center
12:16AM 35.3061 -120.3967 130° Southeast 484 557 37,000 -540 Descending Oakland Center
12:17AM 35.2128 -120.2569 129° Southeast 490 564 37,000  Level Oakland Center
12:18AM 35.1275 -120.1319 130° Southeast 486 559 37,000  Level Oakland Center
12:19AM 35.0414 -120.0061 130° Southeast 485 558 37,000  Level Oakland Center
12:20AM 34.9544 -119.8797 130° Southeast 487 560 37,000  Level Oakland Center
12:21AM 34.8675 -119.7544 130° Southeast 486 559 37,000  Level Oakland Center
12:22AM 34.7806 -119.6281 130° Southeast 487 560 37,000  Level Oakland Center
12:22AM 34.7636 -119.6028 129° Southeast 485 558 37,000  Level Los Angeles Center
12:23AM 34.6583 -119.4525 130° Southeast 487 560 37,000 -300 Level Los Angeles Center
12:24AM 34.5775 -119.3403 131° Southeast 487 560 36,400 -780 Descending Los Angeles Center
12:25AM 34.4889 -119.2150 131° Southeast 491 565 35,500 -720 Descending Los Angeles Center
12:26AM 34.4003 -119.0894 131° Southeast 490 564 35,000 -300 Descending Los Angeles Center
12:27AM 34.3133 -118.9653 130° Southeast 485 558 35,000  Level Los Angeles Center
12:28AM 34.2069 -118.8169 131° Southeast 487 560 35,000  Level Los Angeles Center
12:29AM 34.1181 -118.6919 131° Southeast 490 564 35,000  Level Los Angeles Center
12:30AM 34.0289 -118.5672 131° Southeast 491 565 35,000  Level Los Angeles Center
12:31AM 33.9397 -118.4422 131° Southeast 490 564 35,000  Level Los Angeles Center
12:33AM 33.8467 -118.3256 134° Southeast 490 564 35,000 -1,380 Level Los Angeles Center
12:34AM 33.7542 -118.2075 133° Southeast 488 562 32,300 -3,120 Descending Los Angeles Center
12:35AM 33.6514 -118.0717 132° Southeast 502 578 28,700 -3,000 Descending Los Angeles Center
12:36AM 33.5589 -117.9547 133° Southeast 485 558 26,200 -2,400 Descending Los Angeles Center
12:37AM 33.4678 -117.8419 134° Southeast 467 537 23,900 -2,460 Descending Los Angeles Center
12:37AM 33.4333 -117.7833 125° Southeast 437 503 22,700 -2,460 Descending Southern California TRACON
12:38AM 33.3500 -117.6833 135° Southeast 433 498 20,400 -2,280 Descending Southern California TRACON
12:39AM 33.3031 -117.6336 138° Southeast 431 496 19,100 -2,400 Descending Los Angeles Center
12:39AM 33.2667 -117.5833 131° Southeast 419 482 18,000 -2,460 Descending Southern California TRACON
12:40AM 33.1833 -117.5000 140° Southeast 412 474 15,700 -2,160 Descending Southern California TRACON
12:41AM 33.0833 -117.4333 151° Southeast 386 444 13,700 -1,740 Descending Southern California TRACON
12:42AM 33.0425 -117.3917 139° Southeast 387 445 12,800 -1,740 Descending Los Angeles Center
12:42AM 33.0000 -117.3667 154° Southeast 369 425 12,000 -2,220 Descending Southern California TRACON
12:43AM 32.9167 -117.3000 146° Southeast 357 411 10,100 -1,500 Descending Southern California TRACON
12:44AM 32.8611 -117.2478 142° Southeast 353 406 9,500 -900 Descending Los Angeles Center
12:45AM 32.8036 -117.1814 136° Southeast 306 352 8,500 -780 Descending Los Angeles Center
12:46AM 32.7883 -117.1058 104° East 275 316 8,000 -660 Descending Los Angeles Center
12:46AM 32.7833 -117.0667 99° East 229 264 7,700 -960 Descending Southern California TRACON
12:47AM 32.7667 -117.0167 112° Southeast 199 229 6,800 -1,020 Descending Southern California TRACON
12:48AM 32.7500 -116.9500 107° East 196 226 5,700 -900 Descending Southern California TRACON
12:49AM 32.7167 -116.9167 140° Southeast 206 237 5,000 -720 Descending Southern California TRACON
12:50AM 32.6833 -116.9500 220° Southwest 190 219 4,200 -900 Descending Southern California TRACON
12:51AM 32.6833 -117.0000 270° West 175 201 3,200 -960 Descending Southern California TRACON
12:52AM 32.7000 -117.0500 292° West 172 198 2,300 -960 Descending Southern California TRACON
12:53AM 32.7167 -117.1000 292° West 165 190 1,300 -900 Descending Southern California TRACON
12:54AM 32.7211 -117.1406 277° West 157 181 700 18,360 Descending Los Angeles Center
12:55AM 32.7347 -117.1911 288° West 142 163 35,000 33,720 Climbing Los Angeles Center